Flight Track Log - Related Links

Times and Time Zones

All times are in EDT time to prevent confusion due to time zone crossing. See the JZA7983 flight status page for this flight to view local times or setup timezone preferences in your user account.

Time Position Orientation Groundspeed Altitude Reporting Facility
EDT Latitude Longitude Course Direction KTS MPH feet Rate Location/Type
Fri 06:42:02 PM 43.6667 -79.6167 360° North 40 46 600  Level Toronto Center
Fri 06:43:02 PM 43.6667 -79.6167 360° North 20 23 500  Descending Toronto Center
Fri 06:44:02 PM 43.6833 -79.6167 360° North 20 23 600 50 Climbing Toronto Center
Fri 06:45:02 PM 43.6833 -79.6167 360° North 10 12 600  Level Toronto Center
Fri 06:48:02 PM 43.6833 -79.6167 36° Northeast 10 12 600 575 Level Toronto Center
Fri 06:49:02 PM 43.6500 -79.6500 216° Southwest 120 138 2,900 2,550 Climbing Toronto Center
Fri 06:50:02 PM 43.6333 -79.7000 245° Southwest 170 196 5,700 3,000 Climbing Toronto Center
Fri 06:51:02 PM 43.5667 -79.7500 209° Southwest 230 265 8,900 2,850 Climbing Toronto Center
Fri 06:52:02 PM 43.5000 -79.7667 190° South 240 276 11,400 2,950 Climbing Toronto Center
Fri 06:53:02 PM 43.4500 -79.8000 206° Southwest 230 265 14,800 1,850 Climbing Toronto Center
Fri 06:54:02 PM 43.4000 -79.8333 206° Southwest 220 253 15,100 1,050 Climbing Toronto Center
Fri 06:55:02 PM 43.3500 -79.9000 224° Southwest 230 265 16,900 1,800 Climbing Toronto Center
Fri 06:56:02 PM 43.3000 -79.9833 231° Southwest 250 288 18,700 1,850 Climbing Toronto Center
Fri 06:57:02 PM 43.2500 -80.0500 224° Southwest 260 299 20,600 1,650 Climbing Toronto Center
Fri 06:58:02 PM 43.2000 -80.1167 224° Southwest 260 299 22,000 1,400 Climbing Toronto Center
Fri 06:59:02 PM 43.1500 -80.2000 231° Southwest 260 299 23,400 1,200 Climbing Toronto Center
Fri 07:00:02 PM 43.1000 -80.2667 224° Southwest 270 311 24,400 1,000 Climbing Toronto Center
Fri 07:01:02 PM 43.0500 -80.3333 224° Southwest 270 311 25,400 900 Climbing Toronto Center
Fri 07:02:02 PM 43.0000 -80.4333 236° Southwest 270 311 26,200 700 Climbing Toronto Center
Fri 07:03:02 PM 42.9500 -80.5000 224° Southwest 280 322 26,800 600 Climbing Toronto Center
Fri 07:04:02 PM 42.9000 -80.5833 231° Southwest 280 322 27,400 550 Climbing Toronto Center
Fri 07:05:02 PM 42.8500 -80.6500 224° Southwest 280 322 27,900 470 Climbing Toronto Center
Fri 07:05:57 PM 42.8039 -80.7472 237° Southwest 287 330 28,300 522 Climbing Cleveland Center
Fri 07:06:57 PM 42.7475 -80.8264 226° Southwest 293 337 28,900 700 Climbing Cleveland Center
Fri 07:07:57 PM 42.6953 -80.8994 226° Southwest 282 325 29,700 800 Climbing Cleveland Center
Fri 07:08:57 PM 42.6347 -80.9586 216° Southwest 282 325 30,500 800 Climbing Cleveland Center
Fri 07:09:57 PM 42.5761 -81.0144 215° Southwest 270 311 31,300 700 Climbing Cleveland Center
Fri 07:10:57 PM 42.5175 -81.0733 217° Southwest 270 311 31,900 350 Climbing Cleveland Center
Fri 07:11:57 PM 42.4567 -81.1319 215° Southwest 270 311 32,000 50 Climbing Cleveland Center
Fri 07:12:57 PM 42.4003 -81.1819 213° Southwest 270 311 32,000  Level Cleveland Center
Fri 07:13:57 PM 42.3394 -81.2433 217° Southwest 275 316 32,000  Level Cleveland Center
Fri 07:14:57 PM 42.2767 -81.3017 215° Southwest 275 316 32,000  Level Cleveland Center
Fri 07:15:57 PM 42.2136 -81.3653 217° Southwest 275 316 32,000  Level Cleveland Center
Fri 07:16:57 PM 42.1528 -81.4206 214° Southwest 275 316 32,000  Level Cleveland Center
Fri 07:17:57 PM 42.0919 -81.4786 215° Southwest 275 316 32,000  Level Cleveland Center
Fri 07:18:57 PM 42.0289 -81.5392 216° Southwest 275 316 32,000  Level Cleveland Center
Fri 07:19:57 PM 41.9597 -81.6022 214° Southwest 275 316 32,000  Level Cleveland Center
Fri 07:20:57 PM 41.8986 -81.6600 215° Southwest 275 316 32,000  Level Cleveland Center
Fri 07:21:57 PM 41.8356 -81.7203 215° Southwest 275 316 32,000  Level Cleveland Center
Fri 07:22:57 PM 41.7744 -81.7775 215° Southwest 275 316 32,000  Level Cleveland Center
Fri 07:23:57 PM 41.7133 -81.8347 215° Southwest 270 311 32,000  Level Cleveland Center
Fri 07:24:57 PM 41.6503 -81.8947 215° Southwest 270 311 32,000  Level Cleveland Center
Fri 07:25:57 PM 41.5850 -81.9517 213° Southwest 270 311 32,000  Level Cleveland Center
Fri 07:26:57 PM 41.5258 -82.0114 217° Southwest 270 311 32,000  Level Cleveland Center
Fri 07:27:57 PM 41.4606 -82.0683 213° Southwest 270 311 32,000  Level Cleveland Center
Fri 07:28:57 PM 41.3972 -82.1278 215° Southwest 275 316 32,000  Level Cleveland Center
Fri 07:29:57 PM 41.3319 -82.1731 208° Southwest 275 316 32,000  Level Cleveland Center
Fri 07:31:59 PM 41.1806 -82.2256 195° South 281 323 32,000  Level Indianapolis Center
Fri 07:33:00 PM 41.1044 -82.2533 195° South 283 326 32,000  Level Indianapolis Center
Fri 07:34:02 PM 41.0272 -82.2800 195° South 285 328 32,000  Level Indianapolis Center
Fri 07:35:04 PM 40.9497 -82.3075 195° South 286 329 32,000  Level Indianapolis Center
Fri 07:36:05 PM 40.8717 -82.3350 195° South 287 330 32,000  Level Indianapolis Center
Fri 07:37:07 PM 40.7944 -82.3625 195° South 287 330 32,000  Level Indianapolis Center
Fri 07:38:09 PM 40.7172 -82.3900 195° South 285 328 32,000  Level Indianapolis Center
Fri 07:39:10 PM 40.6269 -82.4219 195° South 285 328 32,000  Level Indianapolis Center
Fri 07:40:12 PM 40.5494 -82.4494 195° South 285 328 32,000  Level Indianapolis Center
Fri 07:41:14 PM 40.4722 -82.4742 194° South 283 326 32,000  Level Indianapolis Center
Fri 07:42:15 PM 40.3958 -82.5033 196° South 282 325 32,000 -341 Level Indianapolis Center
Fri 07:43:17 PM 40.3169 -82.5317 195° South 289 333 31,300 -878 Descending Indianapolis Center
Fri 07:44:18 PM 40.2361 -82.5617 196° South 295 339 30,200 -1,024 Descending Indianapolis Center
Fri 07:45:20 PM 40.1519 -82.5906 195° South 307 353 29,200 -968 Descending Indianapolis Center
Fri 07:46:22 PM 40.1042 -82.6883 237° Southwest 336 387 28,200 -976 Descending Indianapolis Center
Fri 07:47:23 PM 40.0636 -82.7992 244° Southwest 337 388 27,200 -976 Descending Indianapolis Center
Fri 07:48:25 PM 40.0197 -82.9050 242° Southwest 329 379 26,200 -968 Descending Indianapolis Center
Fri 07:49:27 PM 39.9764 -83.0089 241° Southwest 324 373 25,200 -1,073 Descending Indianapolis Center
Fri 07:50:28 PM 39.9250 -83.1294 241° Southwest 323 372 24,000 -1,073 Descending Indianapolis Center
Fri 07:51:30 PM 39.8808 -83.2356 242° Southwest 327 376 23,000 -968 Descending Indianapolis Center
Fri 07:52:32 PM 39.8358 -83.3419 241° Southwest 329 379 22,000 -1,024 Descending Indianapolis Center
Fri 07:53:33 PM 39.7908 -83.4508 242° Southwest 330 380 20,900 -1,171 Descending Indianapolis Center
Fri 07:54:35 PM 39.7442 -83.5589 241° Southwest 332 382 19,600 -1,366 Descending Indianapolis Center
Fri 07:55:36 PM 39.6972 -83.6686 241° Southwest 341 392 18,100 -1,610 Descending Indianapolis Center
Fri 07:56:38 PM 39.6489 -83.7814 241° Southwest 352 405 16,300 -1,839 Descending Indianapolis Center
Fri 07:57:40 PM 39.6014 -83.8919 241° Southwest 348 400 14,300 -1,951 Descending Indianapolis Center
Fri 07:58:41 PM 39.5389 -83.9847 229° Southwest 342 394 12,300 -1,610 Descending Indianapolis Center
Fri 07:59:43 PM 39.4744 -84.0764 228° Southwest 341 392 11,000 -774 Descending Indianapolis Center
Fri 08:00:45 PM 39.4114 -84.1636 227° Southwest 332 382 10,700 -634 Descending Indianapolis Center
Fri 08:01:46 PM 39.3603 -84.2344 227° Southwest 283 326 9,700 -1,220 Descending Indianapolis Center
Fri 08:02:48 PM 39.2947 -84.2714 204° Southwest 264 304 8,200 -1,548 Descending Indianapolis Center
Fri 08:03:50 PM 39.2297 -84.2994 198° South 253 291 6,500 -1,463 Descending Indianapolis Center
Fri 08:04:51 PM 39.1556 -84.3331 199° South 244 281 5,200 -1,220 Descending Indianapolis Center
Fri 08:05:53 PM 39.1033 -84.3750 212° Southwest 229 264 4,000 -720 Descending Indianapolis Center
Fri 08:06:56 PM 39.0667 -84.4333 231° Southwest 185 213 3,700 -231 Descending Cincinnati TRACON
Fri 08:08:03 PM 39.0500 -84.4833 247° West 181 208 3,500 -541 Descending Cincinnati TRACON
Fri 08:09:09 PM 39.0500 -84.5500 270° West 141 162 2,500 -800 Descending Cincinnati TRACON
Fri 08:10:03 PM 39.0500 -84.5833 270° West 112 129 1,900 -667 Descending Cincinnati TRACON

Login

Don't have an account? Register now (free) for customized features, flight alerts, and more!